DFSTI EDXW-EDLE
Flight info
| Callsign | DFSTI |
|---|---|
| Flight time | N/A |
| Altitude | 1500 |
| Route | DCT FLENSBURG DCT KIEL DCT EUTIN DCT NEUMUNSTER DCT HAMBURG HABFU1G/N0174F140 IFR HABFU Y348 MAWEQ Z718 OSNAD M170 HMM T851 HALME VFR DCT |
| Aircraft | C208/L-SDFGR/C |
Departure
| Time | 2026-05-04 14:51 |
|---|---|
| Airport | Westerland Sylt Airport (EDXW) |
Arrival
| Time | N/A |
|---|---|
| Airport | Essen-Mülheim Airport (EDLE) |
| Time | Latitude | Longitude | Altitude | Speed | Heading |
|---|---|---|---|---|---|
| 2026-05-04 14:39 | 54.91311 | 8.33110 | 27 ft | 0 kts | 270° |
| 2026-05-04 14:41 | 54.91312 | 8.33191 | 27 ft | 1 kts | 259° |
| 2026-05-04 14:42 | 54.91313 | 8.33199 | 27 ft | 0 kts | 259° |
| 2026-05-04 14:45 | 54.91312 | 8.33193 | 27 ft | 3 kts | 235° |
| 2026-05-04 14:45 | 54.91264 | 8.33181 | 29 ft | 10 kts | 187° |
| 2026-05-04 14:45 | 54.91176 | 8.33178 | 33 ft | 14 kts | 179° |
| 2026-05-04 14:46 | 54.91079 | 8.33180 | 32 ft | 16 kts | 182° |
| 2026-05-04 14:46 | 54.90971 | 8.33112 | 33 ft | 11 kts | 201° |
| 2026-05-04 14:46 | 54.90883 | 8.33168 | 34 ft | 17 kts | 156° |
| 2026-05-04 14:46 | 54.90774 | 8.33218 | 34 ft | 17 kts | 173° |
| 2026-05-04 14:47 | 54.90642 | 8.33234 | 34 ft | 19 kts | 177° |
| 2026-05-04 14:47 | 54.90506 | 8.33269 | 33 ft | 20 kts | 162° |
| 2026-05-04 14:47 | 54.90394 | 8.33366 | 32 ft | 21 kts | 143° |
| 2026-05-04 14:47 | 54.90312 | 8.33517 | 31 ft | 18 kts | 122° |
| 2026-05-04 14:48 | 54.90263 | 8.33723 | 32 ft | 16 kts | 99° |
| 2026-05-04 14:48 | 54.90242 | 8.33960 | 32 ft | 23 kts | 98° |
| 2026-05-04 14:48 | 54.90246 | 8.34229 | 32 ft | 22 kts | 79° |
| 2026-05-04 14:48 | 54.90315 | 8.34475 | 34 ft | 25 kts | 54° |
| 2026-05-04 14:49 | 54.90437 | 8.34690 | 34 ft | 28 kts | 43° |
| 2026-05-04 14:49 | 54.90556 | 8.34877 | 34 ft | 13 kts | 44° |
| 2026-05-04 14:49 | 54.90607 | 8.34935 | 35 ft | 7 kts | 324° |
| 2026-05-04 14:49 | 54.90614 | 8.34928 | 35 ft | 1 kts | 324° |
| 2026-05-04 14:50 | 54.90704 | 8.34815 | 34 ft | 39 kts | 324° |
| 2026-05-04 14:50 | 54.91047 | 8.34390 | 36 ft | 81 kts | 324° |
| 2026-05-04 14:50 | 54.91575 | 8.33733 | 128 ft | 101 kts | 324° |
| 2026-05-04 14:50 | 54.92120 | 8.32985 | 419 ft | 100 kts | 319° |
| 2026-05-04 14:51 | 54.92668 | 8.32107 | 575 ft | 110 kts | 316° |
| 2026-05-04 14:51 | 54.93197 | 8.31173 | 900 ft | 108 kts | 314° |
| 2026-05-04 14:51 | 54.93810 | 8.30431 | 1175 ft | 109 kts | 327° |
| 2026-05-04 14:51 | 54.94209 | 8.29405 | 1444 ft | 109 kts | 270° |
| 2026-05-04 14:52 | 54.93772 | 8.28252 | 1516 ft | 134 kts | 213° |
| 2026-05-04 14:52 | 54.92782 | 8.28201 | 1510 ft | 157 kts | 160° |
| 2026-05-04 14:52 | 54.91836 | 8.29187 | 1509 ft | 160 kts | 149° |
| 2026-05-04 14:52 | 54.90893 | 8.30223 | 1511 ft | 162 kts | 149° |
| 2026-05-04 14:53 | 54.89930 | 8.31296 | 1509 ft | 165 kts | 149° |
| 2026-05-04 14:53 | 54.88964 | 8.32364 | 1509 ft | 163 kts | 149° |
| 2026-05-04 14:53 | 54.88030 | 8.33486 | 1497 ft | 164 kts | 135° |
| 2026-05-04 14:53 | 54.87572 | 8.35253 | 1502 ft | 162 kts | 97° |
| 2026-05-04 14:54 | 54.87453 | 8.37198 | 1503 ft | 162 kts | 91° |
| 2026-05-04 14:54 | 54.87403 | 8.39142 | 1507 ft | 161 kts | 90° |
| 2026-05-04 14:54 | 54.87339 | 8.41076 | 1513 ft | 161 kts | 90° |
| 2026-05-04 14:54 | 54.87274 | 8.43015 | 1494 ft | 159 kts | 91° |
| 2026-05-04 14:55 | 54.87217 | 8.44936 | 1483 ft | 159 kts | 90° |
| 2026-05-04 14:55 | 54.87250 | 8.46838 | 1482 ft | 158 kts | 80° |
| 2026-05-04 14:55 | 54.87398 | 8.48712 | 1480 ft | 157 kts | 78° |
| 2026-05-04 14:55 | 54.87527 | 8.50603 | 1476 ft | 157 kts | 80° |
| 2026-05-04 14:56 | 54.87659 | 8.52484 | 1477 ft | 157 kts | 79° |
| 2026-05-04 14:56 | 54.87792 | 8.54353 | 1480 ft | 156 kts | 78° |
| 2026-05-04 14:56 | 54.87925 | 8.56229 | 1479 ft | 156 kts | 79° |
| 2026-05-04 14:56 | 54.88060 | 8.58102 | 1480 ft | 157 kts | 79° |
| 2026-05-04 14:57 | 54.88147 | 8.59970 | 1477 ft | 158 kts | 89° |
| 2026-05-04 14:57 | 54.88045 | 8.61894 | 1485 ft | 160 kts | 92° |
| 2026-05-04 14:57 | 54.87936 | 8.63833 | 1485 ft | 162 kts | 92° |
| 2026-05-04 14:57 | 54.87836 | 8.65775 | 1483 ft | 161 kts | 92° |
| 2026-05-04 14:58 | 54.87740 | 8.67690 | 1491 ft | 161 kts | 92° |
| 2026-05-04 14:58 | 54.87621 | 8.69656 | 1489 ft | 161 kts | 92° |
| 2026-05-04 14:58 | 54.87523 | 8.71607 | 1489 ft | 163 kts | 92° |
| 2026-05-04 14:58 | 54.87451 | 8.72908 | 1483 ft | 165 kts | 92° |
| 2026-05-04 14:59 | 54.87327 | 8.75502 | 1477 ft | 162 kts | 95° |
| 2026-05-04 14:59 | 54.87082 | 8.77431 | 1478 ft | 163 kts | 103° |
| 2026-05-04 14:59 | 54.86552 | 8.81276 | 1474 ft | 164 kts | 102° |
| 2026-05-04 15:00 | 54.86282 | 8.83208 | 1474 ft | 164 kts | 103° |
| 2026-05-04 15:00 | 54.85990 | 8.85111 | 1484 ft | 163 kts | 104° |
| 2026-05-04 15:00 | 54.85708 | 8.87037 | 1480 ft | 165 kts | 102° |
| 2026-05-04 15:01 | 54.85157 | 8.90919 | 1479 ft | 164 kts | 103° |
| 2026-05-04 15:01 | 54.84887 | 8.92824 | 1480 ft | 163 kts | 103° |
| 2026-05-04 15:01 | 54.84616 | 8.94755 | 1476 ft | 166 kts | 103° |
| 2026-05-04 15:01 | 54.84344 | 8.96684 | 1472 ft | 162 kts | 102° |
| 2026-05-04 15:02 | 54.84068 | 8.98559 | 1474 ft | 160 kts | 103° |
| 2026-05-04 15:02 | 54.83801 | 9.00453 | 1483 ft | 163 kts | 101° |
| 2026-05-04 15:02 | 54.83536 | 9.02373 | 1473 ft | 163 kts | 104° |
| 2026-05-04 15:02 | 54.83268 | 9.04283 | 1485 ft | 164 kts | 102° |
| 2026-05-04 15:03 | 54.83012 | 9.06207 | 1476 ft | 163 kts | 102° |
| 2026-05-04 15:03 | 54.82743 | 9.08111 | 1475 ft | 164 kts | 102° |
| 2026-05-04 15:03 | 54.82470 | 9.10016 | 1481 ft | 162 kts | 102° |
| 2026-05-04 15:03 | 54.82196 | 9.11907 | 1478 ft | 162 kts | 103° |
| 2026-05-04 15:04 | 54.81917 | 9.13807 | 1477 ft | 163 kts | 103° |
| 2026-05-04 15:04 | 54.81735 | 9.15068 | 1467 ft | 163 kts | 102° |
| 2026-05-04 15:04 | 54.81455 | 9.16981 | 1466 ft | 163 kts | 102° |
| 2026-05-04 15:04 | 54.81161 | 9.18875 | 1467 ft | 162 kts | 102° |
| 2026-05-04 15:05 | 54.80883 | 9.20766 | 1469 ft | 162 kts | 103° |
| 2026-05-04 15:05 | 54.80620 | 9.22661 | 1470 ft | 161 kts | 102° |
| 2026-05-04 15:05 | 54.80339 | 9.24551 | 1470 ft | 162 kts | 103° |
| 2026-05-04 15:05 | 54.80075 | 9.26461 | 1477 ft | 164 kts | 102° |
| 2026-05-04 15:06 | 54.79817 | 9.28403 | 1479 ft | 166 kts | 103° |
| 2026-05-04 15:06 | 54.79558 | 9.30363 | 1473 ft | 167 kts | 103° |
| 2026-05-04 15:06 | 54.79299 | 9.32283 | 1475 ft | 164 kts | 103° |
| 2026-05-04 15:07 | 54.78807 | 9.36110 | 1469 ft | 162 kts | 102° |
| 2026-05-04 15:07 | 54.78559 | 9.38021 | 1463 ft | 162 kts | 102° |
| 2026-05-04 15:07 | 54.78317 | 9.39919 | 1466 ft | 161 kts | 102° |
| 2026-05-04 15:07 | 54.78067 | 9.41825 | 1464 ft | 163 kts | 104° |
| 2026-05-04 15:08 | 54.77827 | 9.43726 | 1472 ft | 161 kts | 103° |
| 2026-05-04 15:08 | 54.77593 | 9.45617 | 1463 ft | 161 kts | 103° |
| 2026-05-04 15:08 | 54.77353 | 9.47512 | 1466 ft | 161 kts | 102° |
| 2026-05-04 15:08 | 54.77102 | 9.49428 | 1464 ft | 164 kts | 103° |
| 2026-05-04 15:09 | 54.76843 | 9.51351 | 1465 ft | 163 kts | 103° |
| 2026-05-04 15:09 | 54.76597 | 9.53243 | 1466 ft | 161 kts | 103° |
| 2026-05-04 15:09 | 54.76365 | 9.55134 | 1465 ft | 161 kts | 102° |
| 2026-05-04 15:10 | 54.75869 | 9.58933 | 1458 ft | 163 kts | 103° |
| 2026-05-04 15:10 | 54.75617 | 9.60859 | 1457 ft | 164 kts | 103° |
| 2026-05-04 15:10 | 54.75111 | 9.64673 | 1454 ft | 161 kts | 103° |
| 2026-05-04 15:11 | 54.74729 | 9.66484 | 1451 ft | 161 kts | 130° |
| 2026-05-04 15:11 | 54.73878 | 9.67678 | 1461 ft | 158 kts | 150° |
| 2026-05-04 15:11 | 54.72984 | 9.68776 | 1464 ft | 161 kts | 148° |
| 2026-05-04 15:11 | 54.72075 | 9.69913 | 1470 ft | 162 kts | 147° |
| 2026-05-04 15:12 | 54.71207 | 9.71182 | 1471 ft | 165 kts | 142° |
| 2026-05-04 15:12 | 54.70355 | 9.72516 | 1474 ft | 165 kts | 141° |
| 2026-05-04 15:12 | 54.69494 | 9.73838 | 1471 ft | 165 kts | 142° |
| 2026-05-04 15:12 | 54.68646 | 9.75171 | 1470 ft | 164 kts | 141° |
| 2026-05-04 15:13 | 54.67807 | 9.76486 | 1468 ft | 162 kts | 142° |
| 2026-05-04 15:13 | 54.66976 | 9.77783 | 1467 ft | 160 kts | 142° |
| 2026-05-04 15:13 | 54.66152 | 9.79070 | 1468 ft | 159 kts | 142° |
| 2026-05-04 15:13 | 54.65331 | 9.80353 | 1466 ft | 159 kts | 142° |
| 2026-05-04 15:14 | 54.64512 | 9.81636 | 1463 ft | 159 kts | 142° |
| 2026-05-04 15:14 | 54.63700 | 9.82922 | 1462 ft | 158 kts | 142° |
| 2026-05-04 15:14 | 54.62890 | 9.84207 | 1465 ft | 158 kts | 141° |
| 2026-05-04 15:14 | 54.62080 | 9.85495 | 1466 ft | 158 kts | 142° |
| 2026-05-04 15:15 | 54.61266 | 9.86773 | 1460 ft | 158 kts | 142° |
| 2026-05-04 15:15 | 54.60455 | 9.88047 | 1450 ft | 158 kts | 142° |
| 2026-05-04 15:15 | 54.59650 | 9.89284 | 1455 ft | 156 kts | 142° |
| 2026-05-04 15:16 | 54.58017 | 9.91731 | 1457 ft | 155 kts | 142° |
| 2026-05-04 15:16 | 54.57206 | 9.92954 | 1456 ft | 155 kts | 141° |
| 2026-05-04 15:16 | 54.55573 | 9.95385 | 1460 ft | 155 kts | 142° |
| 2026-05-04 15:17 | 54.54752 | 9.96605 | 1460 ft | 155 kts | 142° |
| 2026-05-04 15:17 | 54.53123 | 9.99024 | 1460 ft | 154 kts | 142° |
| 2026-05-04 15:17 | 54.52273 | 10.00128 | 1460 ft | 152 kts | 153° |
| 2026-05-04 15:18 | 54.51350 | 10.01021 | 1463 ft | 152 kts | 155° |
| 2026-05-04 15:18 | 54.50394 | 10.01784 | 1462 ft | 151 kts | 160° |
| 2026-05-04 15:18 | 54.49435 | 10.02544 | 1463 ft | 152 kts | 160° |
| 2026-05-04 15:19 | 54.47511 | 10.04057 | 1474 ft | 154 kts | 160° |
| 2026-05-04 15:19 | 54.46527 | 10.04819 | 1476 ft | 156 kts | 159° |
| 2026-05-04 15:19 | 54.44581 | 10.06422 | 1478 ft | 157 kts | 150° |
| 2026-05-04 15:20 | 54.43667 | 10.07461 | 1479 ft | 157 kts | 150° |
| 2026-05-04 15:20 | 54.42758 | 10.08513 | 1479 ft | 158 kts | 150° |
| 2026-05-04 15:20 | 54.41844 | 10.09573 | 1477 ft | 159 kts | 150° |
| 2026-05-04 15:20 | 54.40923 | 10.10628 | 1479 ft | 159 kts | 150° |
| 2026-05-04 15:21 | 54.40003 | 10.11680 | 1479 ft | 159 kts | 150° |
| 2026-05-04 15:21 | 54.39083 | 10.12734 | 1476 ft | 160 kts | 149° |
| 2026-05-04 15:21 | 54.37250 | 10.14872 | 1474 ft | 159 kts | 150° |
| 2026-05-04 15:22 | 54.36339 | 10.15934 | 1477 ft | 158 kts | 150° |
| 2026-05-04 15:22 | 54.35430 | 10.16988 | 1476 ft | 158 kts | 150° |
| 2026-05-04 15:22 | 54.33611 | 10.19123 | 1480 ft | 159 kts | 150° |
| 2026-05-04 15:23 | 54.32615 | 10.19816 | 1462 ft | 153 kts | 179° |
| 2026-05-04 15:23 | 54.31551 | 10.19953 | 1466 ft | 155 kts | 180° |
| 2026-05-04 15:23 | 54.30468 | 10.20069 | 1472 ft | 157 kts | 181° |
| 2026-05-04 15:23 | 54.29381 | 10.20194 | 1472 ft | 156 kts | 181° |
| 2026-05-04 15:24 | 54.27228 | 10.20470 | 1471 ft | 157 kts | 181° |
| 2026-05-04 15:24 | 54.25043 | 10.20725 | 1472 ft | 158 kts | 180° |
| 2026-05-04 15:25 | 54.23954 | 10.20836 | 1477 ft | 157 kts | 181° |
| 2026-05-04 15:25 | 54.22856 | 10.20942 | 1467 ft | 158 kts | 181° |
| 2026-05-04 15:25 | 54.21755 | 10.21045 | 1465 ft | 158 kts | 181° |
| 2026-05-04 15:26 | 54.19580 | 10.21207 | 1470 ft | 156 kts | 181° |
| 2026-05-04 15:26 | 54.18489 | 10.21293 | 1469 ft | 157 kts | 181° |
| 2026-05-04 15:26 | 54.16350 | 10.21956 | 1463 ft | 156 kts | 165° |
| 2026-05-04 15:27 | 54.15305 | 10.22523 | 1467 ft | 158 kts | 164° |
| 2026-05-04 15:27 | 54.13183 | 10.23696 | 1457 ft | 162 kts | 165° |
| 2026-05-04 15:28 | 54.11046 | 10.24872 | 1462 ft | 160 kts | 165° |
| 2026-05-04 15:28 | 54.09977 | 10.25417 | 1456 ft | 160 kts | 166° |
| 2026-05-04 15:28 | 54.07877 | 10.26654 | 1450 ft | 162 kts | 149° |
| 2026-05-04 15:29 | 54.07120 | 10.28082 | 1454 ft | 164 kts | 126° |
| 2026-05-04 15:30 | 54.05055 | 10.34749 | 1451 ft | 161 kts | 103° |
| 2026-05-04 15:30 | 54.04435 | 10.40407 | 1454 ft | 160 kts | 95° |
| 2026-05-04 15:31 | 54.04170 | 10.44189 | 1449 ft | 163 kts | 96° |
| 2026-05-04 15:31 | 54.04033 | 10.46096 | 1448 ft | 162 kts | 95° |
| 2026-05-04 15:32 | 54.03659 | 10.51714 | 1454 ft | 158 kts | 96° |
| 2026-05-04 15:32 | 54.03569 | 10.55443 | 1444 ft | 158 kts | 66° |
| 2026-05-04 15:33 | 54.05248 | 10.57421 | 1463 ft | 152 kts | 19° |
| 2026-05-04 15:34 | 54.08176 | 10.59440 | 1458 ft | 149 kts | 6° |
| 2026-05-04 15:34 | 54.09161 | 10.59746 | 1445 ft | 138 kts | 4° |
| 2026-05-04 15:34 | 54.10720 | 10.60265 | 1439 ft | 89 kts | 4° |
| 2026-05-04 15:35 | 54.11887 | 10.60715 | 1451 ft | 87 kts | 4° |
| 2026-05-04 15:35 | 54.12471 | 10.61051 | 1461 ft | 93 kts | 16° |
| 2026-05-04 15:35 | 54.13041 | 10.61677 | 1456 ft | 101 kts | 33° |
| 2026-05-04 15:36 | 54.13742 | 10.63740 | 1438 ft | 107 kts | 99° |
| 2026-05-04 15:36 | 54.13268 | 10.64600 | 1459 ft | 101 kts | 155° |
| 2026-05-04 15:36 | 54.12688 | 10.65317 | 1456 ft | 105 kts | 135° |
| 2026-05-04 15:37 | 54.12180 | 10.66198 | 1454 ft | 104 kts | 134° |
| 2026-05-04 15:37 | 54.12039 | 10.67327 | 1448 ft | 99 kts | 65° |
| 2026-05-04 15:37 | 54.12323 | 10.68387 | 1446 ft | 97 kts | 34° |
| 2026-05-04 15:37 | 54.12901 | 10.68448 | 1440 ft | 83 kts | 317° |
| 2026-05-04 15:38 | 54.13014 | 10.67573 | 1442 ft | 79 kts | 278° |
| 2026-05-04 15:38 | 54.13236 | 10.66716 | 1456 ft | 80 kts | 292° |
| 2026-05-04 15:38 | 54.13314 | 10.65776 | 1464 ft | 83 kts | 269° |
| 2026-05-04 15:38 | 54.13126 | 10.64847 | 1462 ft | 83 kts | 258° |
| 2026-05-04 15:39 | 54.13197 | 10.63922 | 1453 ft | 80 kts | 289° |
| 2026-05-04 15:39 | 54.13375 | 10.63021 | 1463 ft | 81 kts | 287° |
| 2026-05-04 15:39 | 54.13592 | 10.61039 | 1451 ft | 93 kts | 245° |
| 2026-05-04 15:40 | 54.12979 | 10.60512 | 1450 ft | 116 kts | 187° |
| 2026-05-04 15:40 | 54.12110 | 10.60377 | 1466 ft | 134 kts | 190° |
| 2026-05-04 15:40 | 54.11150 | 10.60182 | 1470 ft | 144 kts | 191° |
| 2026-05-04 15:40 | 54.10137 | 10.59973 | 1465 ft | 148 kts | 191° |
| 2026-05-04 15:41 | 54.09104 | 10.59769 | 1467 ft | 150 kts | 191° |
| 2026-05-04 15:41 | 54.08066 | 10.60013 | 1461 ft | 158 kts | 152° |
| 2026-05-04 15:41 | 54.07396 | 10.61481 | 1460 ft | 161 kts | 114° |
| 2026-05-04 15:41 | 54.06898 | 10.63195 | 1454 ft | 162 kts | 122° |
| 2026-05-04 15:42 | 54.06287 | 10.64857 | 1331 ft | 168 kts | 122° |
| 2026-05-04 15:42 | 54.05726 | 10.66417 | 1166 ft | 143 kts | 123° |
| 2026-05-04 15:42 | 54.05250 | 10.67802 | 962 ft | 130 kts | 122° |
| 2026-05-04 15:42 | 54.04851 | 10.69013 | 956 ft | 104 kts | 121° |
| 2026-05-04 15:43 | 54.04511 | 10.70015 | 811 ft | 101 kts | 121° |
| 2026-05-04 15:43 | 54.04351 | 10.71144 | 650 ft | 97 kts | 76° |
| 2026-05-04 15:43 | 54.04611 | 10.72151 | 483 ft | 89 kts | 42° |
| 2026-05-04 15:43 | 54.05090 | 10.72778 | 384 ft | 85 kts | 31° |
| 2026-05-04 15:44 | 54.05540 | 10.73314 | 312 ft | 75 kts | 25° |
| 2026-05-04 15:44 | 54.06042 | 10.73658 | 251 ft | 85 kts | 13° |
| 2026-05-04 15:44 | 54.06571 | 10.74109 | 109 ft | 77 kts | 23° |
| 2026-05-04 15:44 | 54.06881 | 10.74400 | 108 ft | 9 kts | 31° |
| 2026-05-04 15:45 | 54.06882 | 10.74354 | 107 ft | 9 kts | 263° |
| 2026-05-04 15:45 | 54.06870 | 10.74345 | 109 ft | 0 kts | 125° |